Hauptseite
METAR-TAF:

METAR-TAF

Flughäfen :

RAF Fairford

Fairford, England

Breite: 51-41N, Länge: 001-47W, Höhe: 87 m

Beobachtung

Neuester Wetterbericht von vor 16 Minuten, um 05:07 UTC
Wind 3 kt aus Nordost
Temperatur 8°C
Luftfeuchtigkeit 93%
Luftdruck 1018 hPa
Sichtweite: 1400 m
Himmel klar
feuchter Dunst

METAR: EGVA 210507Z AUTO 05003KT 1400 R27/0700VP1500 BR CLR 08/07 A3005 RMK AO2 VIS 1400V9000 SLP179

Zeit: 06:23 (05:23 UTC)


TAF: fehlend

Wetterbeobachtungen und Prognosen von mehr als 4000 Flughäfen (METAR und TAF Bericht).

Die verfügbaren Stationen werden durch gelbe und rote Markierungen auf der Karte dargestellt.

Führen Sie die Maus auf sie, um den Namen der Station zu sehen.

Darauf klicken, um die Beobachtung von Wetterbeobachtungen und Prognosen zu sehen.

Um die Karte zu ändern : klicken Sie auf den grünen Tasten mit einem schwarzen Kreuz Zum Vergrößern, auf den grünen Button mit einem Gedankenstrich zu verkleinern, oder auf die grünen Pfeile für benachbarte Karten.


METAR-TAF: